createdAt,value
2022-10-30T00:02:11.728Z,100.00
2022-10-30T00:04:39.476Z,100.00
2022-10-30T00:07:07.136Z,100.00
2022-10-30T00:09:53.094Z,100.00
2022-10-30T00:12:20.974Z,100.00
2022-10-30T00:14:48.649Z,100.00
2022-10-30T00:17:16.567Z,100.00
2022-10-30T00:19:44.252Z,100.00
2022-10-30T00:22:11.993Z,100.00
2022-10-30T00:24:39.947Z,100.00
2022-10-30T00:27:08.157Z,100.00
2022-10-30T00:29:35.977Z,100.00
2022-10-30T00:32:04.091Z,100.00
2022-10-30T00:34:31.922Z,100.00
2022-10-30T00:36:59.698Z,100.00
2022-10-30T00:39:27.975Z,100.00
2022-10-30T00:42:16.181Z,100.00
2022-10-30T00:45:02.380Z,100.00
2022-10-30T00:47:36.040Z,100.00
2022-10-30T00:50:15.768Z,100.00
2022-10-30T00:53:10.018Z,100.00
2022-10-30T00:56:02.431Z,100.00
2022-10-30T00:58:39.061Z,100.00
2022-10-30T01:01:28.872Z,100.00
2022-10-30T01:04:17.190Z,100.00
2022-10-30T01:06:52.132Z,100.00
2022-10-30T01:09:20.143Z,100.00
2022-10-30T01:12:07.573Z,100.00
2022-10-30T01:14:39.395Z,100.00
2022-10-30T01:17:27.193Z,100.00
2022-10-30T01:20:18.470Z,100.00
2022-10-30T01:22:58.625Z,100.00
2022-10-30T01:25:38.881Z,100.00
2022-10-30T01:28:26.590Z,100.00
2022-10-30T01:31:51.222Z,100.00
2022-10-30T01:35:17.310Z,100.00
2022-10-30T01:38:26.661Z,100.00
2022-10-30T01:40:55.263Z,100.00
2022-10-30T01:43:43.913Z,100.00
2022-10-30T01:46:35.974Z,100.00
2022-10-30T01:49:27.929Z,100.00
2022-10-30T01:52:06.381Z,100.00
2022-10-30T01:55:13.789Z,100.00
2022-10-30T01:58:49.718Z,100.00
2022-10-30T02:01:39.977Z,100.00
2022-10-30T02:04:12.550Z,100.00
2022-10-30T02:06:58.953Z,100.00
2022-10-30T02:09:27.302Z,100.00
2022-10-30T02:12:13.848Z,100.00
2022-10-30T02:14:47.935Z,100.00
2022-10-30T02:17:34.391Z,100.00
2022-10-30T02:20:02.366Z,100.00
2022-10-30T02:22:31.362Z,100.00
2022-10-30T02:25:17.897Z,100.00
2022-10-30T02:27:45.811Z,100.00
2022-10-30T02:30:13.922Z,100.00
2022-10-30T02:32:42.434Z,100.00
2022-10-30T02:35:10.651Z,100.00
2022-10-30T02:37:39.658Z,100.00
2022-10-30T02:40:08.700Z,100.00
2022-10-30T02:42:37.114Z,100.00
2022-10-30T02:45:05.183Z,100.00
2022-10-30T02:47:33.974Z,100.00
2022-10-30T02:50:01.972Z,100.00
2022-10-30T02:52:29.813Z,100.00
2022-10-30T02:55:15.907Z,100.00
2022-10-30T02:58:02.028Z,100.00
2022-10-30T03:00:50.100Z,100.00
2022-10-30T03:03:21.430Z,100.00
2022-10-30T03:05:51.907Z,100.00
2022-10-30T03:08:19.877Z,100.00
2022-10-30T03:10:47.570Z,100.00
2022-10-30T03:13:15.564Z,100.00
2022-10-30T03:15:43.495Z,100.00
2022-10-30T03:18:13.414Z,100.00
2022-10-30T03:20:42.302Z,100.00
2022-10-30T03:23:28.974Z,100.00
2022-10-30T03:25:59.108Z,100.00
2022-10-30T03:28:30.010Z,100.00
2022-10-30T03:31:07.028Z,100.00
2022-10-30T03:33:36.558Z,100.00
2022-10-30T03:36:06.641Z,100.00
2022-10-30T03:38:34.803Z,100.00
2022-10-30T03:41:03.938Z,100.00
2022-10-30T03:43:50.656Z,100.00
2022-10-30T03:46:18.599Z,100.00
2022-10-30T03:48:50.659Z,100.00
2022-10-30T03:51:18.681Z,100.00
2022-10-30T03:53:48.400Z,100.00
2022-10-30T03:56:16.258Z,100.00
2022-10-30T03:58:48.590Z,100.00
2022-10-30T04:01:39.446Z,100.00
2022-10-30T04:04:07.740Z,100.00
2022-10-30T04:06:53.851Z,100.00
2022-10-30T04:09:23.076Z,100.00
2022-10-30T04:11:50.869Z,100.00
2022-10-30T04:14:18.718Z,100.00
2022-10-30T04:16:46.636Z,100.00
2022-10-30T04:19:14.432Z,100.00
2022-10-30T04:21:43.773Z,100.00
2022-10-30T04:24:16.150Z,100.00
2022-10-30T04:26:46.003Z,100.00
2022-10-30T04:29:14.561Z,100.00
2022-10-30T04:31:42.941Z,100.00
2022-10-30T04:34:29.114Z,100.00
2022-10-30T04:37:15.134Z,100.00
2022-10-30T04:40:02.843Z,100.00
2022-10-30T04:42:37.522Z,100.00
2022-10-30T04:45:24.169Z,100.00
2022-10-30T04:47:52.836Z,100.00
2022-10-30T04:50:20.726Z,100.00
2022-10-30T04:52:48.558Z,100.00
2022-10-30T04:55:16.728Z,100.00
2022-10-30T04:57:45.117Z,100.00
2022-10-30T05:00:32.267Z,100.00
2022-10-30T05:03:16.697Z,100.00
2022-10-30T05:05:44.660Z,100.00
2022-10-30T05:08:13.611Z,100.00
2022-10-30T05:10:41.652Z,100.00
2022-10-30T05:13:12.418Z,100.00
2022-10-30T05:15:40.537Z,100.00
2022-10-30T05:18:09.435Z,100.00
2022-10-30T05:20:37.505Z,100.00
2022-10-30T05:23:23.842Z,100.00
2022-10-30T05:25:51.991Z,100.00
2022-10-30T05:28:21.113Z,100.00
2022-10-30T05:30:57.117Z,100.00
2022-10-30T05:33:45.178Z,100.00
2022-10-30T05:36:14.442Z,100.00
2022-10-30T05:38:43.012Z,100.00
2022-10-30T05:41:18.508Z,100.00
2022-10-30T05:44:05.019Z,100.00
2022-10-30T05:46:34.325Z,100.00
2022-10-30T05:49:37.217Z,100.00
2022-10-30T05:52:10.392Z,100.00
2022-10-30T05:54:38.783Z,100.00
2022-10-30T05:57:33.791Z,100.00
2022-10-30T06:00:02.649Z,100.00
2022-10-30T06:02:32.923Z,100.00
2022-10-30T06:05:01.086Z,100.00
2022-10-30T06:07:28.999Z,100.00
2022-10-30T06:09:56.810Z,100.00
2022-10-30T06:12:37.446Z,100.00
2022-10-30T06:15:26.413Z,100.00
2022-10-30T06:18:12.861Z,100.00
2022-10-30T06:20:44.089Z,100.00
2022-10-30T06:23:30.403Z,100.00
2022-10-30T06:26:25.850Z,100.00
2022-10-30T06:28:57.473Z,100.00
2022-10-30T06:31:27.047Z,100.00
2022-10-30T06:33:55.087Z,100.00
2022-10-30T06:36:23.024Z,100.00
2022-10-30T06:38:50.906Z,100.00
2022-10-30T06:41:24.642Z,100.00
2022-10-30T06:44:35.084Z,100.00
2022-10-30T06:47:03.162Z,100.00
2022-10-30T06:49:33.834Z,100.00
2022-10-30T06:52:01.600Z,99.26
2022-10-30T06:54:29.736Z,98.92
2022-10-30T06:57:04.638Z,98.48
2022-10-30T06:59:50.901Z,97.69
2022-10-30T07:02:35.833Z,97.30
2022-10-30T07:05:08.455Z,96.94
2022-10-30T07:07:36.909Z,96.75
2022-10-30T07:10:22.979Z,96.56
2022-10-30T07:13:29.087Z,95.74
2022-10-30T07:16:03.117Z,94.58
2022-10-30T07:18:41.357Z,93.70
2022-10-30T07:21:09.128Z,92.43
2022-10-30T07:23:37.760Z,91.92
2022-10-30T07:26:38.207Z,91.01
2022-10-30T07:29:27.612Z,89.25
2022-10-30T07:32:14.294Z,88.43
2022-10-30T07:34:50.905Z,88.01
2022-10-30T07:37:21.392Z,87.49
2022-10-30T07:40:12.542Z,87.01
2022-10-30T07:43:07.258Z,86.45
2022-10-30T07:46:01.373Z,86.66
2022-10-30T07:48:31.704Z,86.37
2022-10-30T07:51:16.381Z,86.04
2022-10-30T07:54:02.840Z,85.54
2022-10-30T07:56:30.924Z,85.56
2022-10-30T07:59:18.908Z,84.85
2022-10-30T08:02:02.695Z,85.09
2022-10-30T08:04:43.857Z,84.51
2022-10-30T08:07:33.093Z,83.92
2022-10-30T08:10:00.907Z,83.03
2022-10-30T08:12:29.254Z,82.23
2022-10-30T08:14:57.435Z,81.36
2022-10-30T08:17:25.450Z,80.77
2022-10-30T08:19:53.561Z,79.67
2022-10-30T08:22:21.552Z,76.40
2022-10-30T08:24:58.200Z,71.81
2022-10-30T08:28:00.912Z,65.87
2022-10-30T08:30:35.471Z,62.08
2022-10-30T08:33:07.433Z,60.14
2022-10-30T08:36:31.935Z,57.04
2022-10-30T08:39:19.075Z,54.52
2022-10-30T08:41:56.792Z,52.85
2022-10-30T08:44:24.546Z,52.19
2022-10-30T08:47:31.307Z,52.12
2022-10-30T08:49:59.271Z,52.20
2022-10-30T08:52:31.305Z,52.30
2022-10-30T08:55:17.602Z,52.20
2022-10-30T08:57:46.264Z,50.97
2022-10-30T09:00:14.485Z,48.75
2022-10-30T09:03:02.220Z,47.73
2022-10-30T09:05:51.073Z,48.18
2022-10-30T09:08:37.180Z,48.76
2022-10-30T09:11:25.543Z,48.21
2022-10-30T09:13:54.126Z,48.11
2022-10-30T09:16:41.013Z,46.52
2022-10-30T09:19:28.915Z,44.80
2022-10-30T09:21:59.300Z,45.45
2022-10-30T09:24:27.526Z,44.85
2022-10-30T09:26:56.114Z,43.93
2022-10-30T09:29:25.936Z,43.67
2022-10-30T09:32:10.687Z,44.96
2022-10-30T09:34:49.839Z,46.42
2022-10-30T09:37:42.669Z,47.67
2022-10-30T09:40:31.945Z,48.71
2022-10-30T09:43:22.275Z,49.02
2022-10-30T09:46:30.396Z,48.75
2022-10-30T09:51:53.601Z,47.74
2022-10-30T09:55:09.296Z,45.97
2022-10-30T09:57:55.680Z,45.73
2022-10-30T10:00:52.937Z,45.88
2022-10-30T10:03:56.815Z,46.80
2022-10-30T10:06:48.789Z,48.14
2022-10-30T10:09:38.714Z,48.57
2022-10-30T10:12:43.715Z,49.17
2022-10-30T10:15:34.049Z,49.26
2022-10-30T10:18:06.208Z,49.49
2022-10-30T10:20:41.444Z,49.89
2022-10-30T10:23:26.376Z,50.28
2022-10-30T10:25:55.179Z,50.66
2022-10-30T10:28:36.847Z,50.39
2022-10-30T10:31:29.103Z,50.50
2022-10-30T10:34:22.037Z,49.95
2022-10-30T10:37:06.919Z,49.49
2022-10-30T10:39:56.298Z,49.43
2022-10-30T10:42:23.901Z,49.26
2022-10-30T10:45:19.986Z,49.49
2022-10-30T10:51:41.977Z,49.42
2022-10-30T10:54:28.335Z,49.17
2022-10-30T10:56:56.848Z,49.46
2022-10-30T10:59:39.283Z,48.81
2022-10-30T11:02:09.860Z,49.19
2022-10-30T11:04:43.524Z,49.58
2022-10-30T11:07:33.782Z,49.69
2022-10-30T11:10:21.460Z,49.93
2022-10-30T11:12:49.832Z,50.24
2022-10-30T11:15:47.695Z,50.65
2022-10-30T11:18:35.067Z,51.26
2022-10-30T11:21:08.608Z,51.35
2022-10-30T11:23:49.722Z,51.76
2022-10-30T11:26:20.599Z,51.70
2022-10-30T11:28:56.480Z,51.51
2022-10-30T11:31:38.144Z,51.56
2022-10-30T11:34:20.441Z,51.36
2022-10-30T11:36:50.333Z,48.96
2022-10-30T11:39:30.114Z,48.39
2022-10-30T11:42:04.362Z,47.79
2022-10-30T11:44:39.296Z,48.01
2022-10-30T11:47:09.264Z,47.79
2022-10-30T11:50:04.748Z,47.74
2022-10-30T11:52:58.380Z,47.78
2022-10-30T11:55:37.957Z,47.63
2022-10-30T11:58:09.940Z,47.62
2022-10-30T12:00:40.970Z,48.06
2022-10-30T12:03:34.968Z,48.24
2022-10-30T12:06:09.140Z,47.66
2022-10-30T12:08:37.337Z,46.74
2022-10-30T12:11:06.849Z,46.85
2022-10-30T12:13:40.025Z,46.31
2022-10-30T12:16:16.764Z,46.05
2022-10-30T12:19:07.179Z,45.95
2022-10-30T12:21:43.497Z,46.13
2022-10-30T12:24:30.500Z,46.10
2022-10-30T12:27:03.330Z,45.94
2022-10-30T12:30:08.029Z,46.16
2022-10-30T12:32:45.745Z,46.70
2022-10-30T12:35:44.599Z,47.26
2022-10-30T12:38:34.909Z,47.96
2022-10-30T12:41:38.474Z,48.75
2022-10-30T12:44:13.407Z,49.59
2022-10-30T12:47:29.793Z,50.05
2022-10-30T12:50:16.194Z,50.70
2022-10-30T12:52:53.885Z,50.96
2022-10-30T12:55:47.956Z,51.19
2022-10-30T12:58:44.396Z,51.48
2022-10-30T13:01:42.531Z,52.27
2022-10-30T13:04:17.938Z,52.60
2022-10-30T13:07:06.143Z,52.91
2022-10-30T13:09:49.866Z,53.42
2022-10-30T13:12:39.608Z,53.82
2022-10-30T13:15:24.334Z,54.21
2022-10-30T13:17:52.249Z,54.74
2022-10-30T13:20:21.907Z,55.15
2022-10-30T13:23:12.947Z,55.62
2022-10-30T13:26:36.230Z,56.15
2022-10-30T13:29:22.311Z,56.36
2022-10-30T13:32:21.073Z,56.69
2022-10-30T13:35:12.195Z,56.86
2022-10-30T13:37:44.144Z,57.14
2022-10-30T13:40:36.009Z,58.00
2022-10-30T13:43:40.132Z,58.45
2022-10-30T13:46:27.664Z,59.16
2022-10-30T13:49:28.926Z,58.84
2022-10-30T13:52:17.718Z,58.82
2022-10-30T13:55:14.643Z,59.05
2022-10-30T13:58:15.853Z,59.33
2022-10-30T14:01:09.672Z,59.80
2022-10-30T14:04:36.594Z,59.75
2022-10-30T14:07:33.999Z,60.05
2022-10-30T14:10:16.655Z,60.17
2022-10-30T14:13:05.200Z,60.26
2022-10-30T14:15:55.626Z,60.50
2022-10-30T14:18:58.926Z,60.63
2022-10-30T14:21:43.419Z,60.63
2022-10-30T14:24:34.731Z,60.58
2022-10-30T14:27:05.778Z,60.72
2022-10-30T14:29:42.312Z,60.89
2022-10-30T14:32:15.708Z,61.20
2022-10-30T14:35:02.168Z,61.75
2022-10-30T14:37:48.317Z,62.29
2022-10-30T14:40:52.905Z,62.55
2022-10-30T14:43:55.613Z,62.74
2022-10-30T14:47:01.919Z,62.91
2022-10-30T14:49:29.917Z,63.11
2022-10-30T14:52:20.812Z,63.51
2022-10-30T14:55:16.658Z,63.81
2022-10-30T14:57:51.777Z,64.20
2022-10-30T15:00:25.955Z,64.82
2022-10-30T15:03:20.412Z,64.93
2022-10-30T15:05:54.563Z,65.47
2022-10-30T15:08:54.442Z,66.03
2022-10-30T15:11:27.822Z,66.52
2022-10-30T15:14:40.693Z,67.13
2022-10-30T15:17:30.528Z,67.88
2022-10-30T15:20:01.232Z,67.99
2022-10-30T15:22:52.686Z,68.28
2022-10-30T15:25:23.728Z,68.74
2022-10-30T15:28:17.194Z,69.00
2022-10-30T15:31:21.440Z,69.83
2022-10-30T15:33:49.307Z,70.26
2022-10-30T15:36:26.586Z,70.65
2022-10-30T15:39:06.075Z,71.05
2022-10-30T15:41:44.065Z,71.61
2022-10-30T15:46:50.955Z,72.72
2022-10-30T15:49:35.133Z,72.95
2022-10-30T15:52:12.166Z,73.27
2022-10-30T15:55:02.694Z,73.77
2022-10-30T15:58:02.289Z,74.10
2022-10-30T16:00:37.199Z,74.76
2022-10-30T16:03:23.717Z,74.98
2022-10-30T16:05:52.022Z,75.16
2022-10-30T16:08:24.711Z,75.52
2022-10-30T16:10:56.297Z,75.94
2022-10-30T16:13:28.822Z,76.67
2022-10-30T16:15:57.195Z,77.19
2022-10-30T16:18:30.532Z,77.67
2022-10-30T16:21:05.536Z,78.44
2022-10-30T16:23:54.236Z,79.00
2022-10-30T16:26:35.163Z,79.54
2022-10-30T16:29:21.205Z,79.58
2022-10-30T16:32:14.893Z,79.78
2022-10-30T16:34:44.183Z,79.91
2022-10-30T16:37:34.537Z,79.77
2022-10-30T16:40:16.911Z,80.10
2022-10-30T16:43:03.323Z,80.08
2022-10-30T16:45:34.269Z,80.51
2022-10-30T16:48:13.608Z,81.38
2022-10-30T16:50:41.617Z,81.63
2022-10-30T16:53:22.438Z,81.58
2022-10-30T16:55:51.950Z,81.94
2022-10-30T16:58:21.040Z,82.61
2022-10-30T17:00:52.411Z,82.96
2022-10-30T17:03:25.095Z,83.17
2022-10-30T17:06:08.367Z,83.53
2022-10-30T17:08:43.412Z,83.97
2022-10-30T17:11:20.886Z,84.33
2022-10-30T17:13:59.924Z,85.04
2022-10-30T17:16:33.043Z,85.88
2022-10-30T17:19:31.655Z,86.86
2022-10-30T17:22:07.976Z,87.67
2022-10-30T17:24:38.384Z,88.33
2022-10-30T17:27:25.292Z,89.04
2022-10-30T17:29:53.874Z,89.94
2022-10-30T17:32:27.379Z,90.92
2022-10-30T17:35:15.556Z,91.33
2022-10-30T17:37:43.679Z,92.10
2022-10-30T17:40:12.598Z,92.37
2022-10-30T17:42:41.182Z,92.33
2022-10-30T17:45:27.357Z,92.96
2022-10-30T17:47:55.332Z,94.04
2022-10-30T17:50:23.077Z,94.97
2022-10-30T17:52:50.948Z,95.95
2022-10-30T17:55:38.767Z,96.37
2022-10-30T17:58:06.752Z,96.62
2022-10-30T18:00:34.443Z,97.04
2022-10-30T18:03:02.813Z,96.91
2022-10-30T18:05:33.766Z,97.19
2022-10-30T18:08:20.118Z,97.45
2022-10-30T18:10:48.147Z,97.58
2022-10-30T18:13:16.057Z,97.85
2022-10-30T18:16:02.100Z,98.67
2022-10-30T18:18:30.048Z,98.67
2022-10-30T18:21:24.099Z,98.71
2022-10-30T18:23:53.475Z,98.86
2022-10-30T18:26:24.101Z,98.92
2022-10-30T18:29:11.451Z,98.81
2022-10-30T18:31:40.522Z,98.91
2022-10-30T18:34:16.316Z,98.85
2022-10-30T18:36:44.916Z,98.98
2022-10-30T18:39:13.392Z,98.75
2022-10-30T18:41:46.301Z,98.63
2022-10-30T18:44:32.636Z,98.62
2022-10-30T18:47:03.214Z,98.95
2022-10-30T18:49:33.359Z,98.79
2022-10-30T18:52:01.464Z,98.88
2022-10-30T18:54:29.165Z,99.16
2022-10-30T18:56:57.097Z,99.17
2022-10-30T18:59:24.788Z,99.25
2022-10-30T19:01:53.612Z,99.24
2022-10-30T19:04:22.557Z,99.38
2022-10-30T19:06:51.141Z,99.35
2022-10-30T19:09:18.814Z,99.50
2022-10-30T19:11:46.738Z,99.41
2022-10-30T19:14:16.020Z,99.35
2022-10-30T19:17:02.393Z,99.67
2022-10-30T19:19:30.220Z,99.84
2022-10-30T19:22:16.740Z,100.00
2022-10-30T19:25:16.116Z,100.00
2022-10-30T19:27:44.116Z,100.00
2022-10-30T19:30:12.871Z,100.00
2022-10-30T19:32:40.946Z,100.00
2022-10-30T19:35:28.248Z,100.00
2022-10-30T19:37:56.933Z,100.00
2022-10-30T19:40:34.753Z,100.00
2022-10-30T19:43:03.102Z,100.00
2022-10-30T19:45:32.199Z,100.00
2022-10-30T19:48:02.043Z,100.00
2022-10-30T19:50:30.032Z,100.00
2022-10-30T19:53:02.250Z,100.00
2022-10-30T19:55:32.038Z,100.00
2022-10-30T19:58:01.170Z,100.00
2022-10-30T20:00:47.775Z,100.00
2022-10-30T20:03:33.929Z,100.00
2022-10-30T20:06:01.864Z,100.00
2022-10-30T20:08:30.045Z,100.00
2022-10-30T20:11:02.219Z,100.00
2022-10-30T20:13:50.758Z,100.00
2022-10-30T20:16:40.908Z,100.00
2022-10-30T20:19:28.170Z,100.00
2022-10-30T20:21:56.188Z,100.00
2022-10-30T20:24:24.547Z,100.00
2022-10-30T20:27:10.881Z,100.00
2022-10-30T20:29:42.313Z,100.00
2022-10-30T20:32:10.622Z,100.00
2022-10-30T20:34:56.824Z,100.00
2022-10-30T20:37:24.950Z,100.00
2022-10-30T20:39:52.611Z,100.00
2022-10-30T20:42:22.547Z,100.00
2022-10-30T20:44:50.615Z,100.00
2022-10-30T20:47:18.509Z,100.00
2022-10-30T20:49:46.449Z,100.00
2022-10-30T20:52:14.151Z,100.00
2022-10-30T20:54:42.249Z,100.00
2022-10-30T20:57:09.954Z,100.00
2022-10-30T20:59:37.695Z,100.00
2022-10-30T21:02:05.729Z,100.00
2022-10-30T21:04:33.693Z,100.00
2022-10-30T21:07:01.422Z,100.00
2022-10-30T21:09:47.509Z,100.00
2022-10-30T21:12:15.380Z,100.00
2022-10-30T21:14:43.106Z,100.00
2022-10-30T21:17:10.861Z,100.00
2022-10-30T21:19:39.297Z,100.00
2022-10-30T21:22:07.017Z,100.00
2022-10-30T21:24:34.732Z,100.00
2022-10-30T21:27:02.586Z,100.00
2022-10-30T21:29:48.682Z,100.00
2022-10-30T21:32:16.596Z,100.00
2022-10-30T21:35:02.986Z,100.00
2022-10-30T21:37:49.070Z,100.00
2022-10-30T21:40:17.107Z,100.00
2022-10-30T21:42:47.404Z,100.00
2022-10-30T21:45:33.439Z,100.00
2022-10-30T21:48:01.310Z,100.00
2022-10-30T21:50:47.757Z,100.00
2022-10-30T21:53:15.618Z,100.00
2022-10-30T21:55:43.395Z,100.00
2022-10-30T21:58:11.066Z,100.00
2022-10-30T22:00:38.923Z,100.00
2022-10-30T22:03:06.557Z,100.00
2022-10-30T22:05:34.257Z,100.00
2022-10-30T22:08:02.371Z,100.00
2022-10-30T22:10:30.201Z,100.00
2022-10-30T22:12:57.947Z,100.00
2022-10-30T22:15:44.062Z,100.00
2022-10-30T22:18:12.039Z,100.00
2022-10-30T22:20:39.683Z,100.00
2022-10-30T22:23:07.366Z,100.00
2022-10-30T22:25:57.747Z,100.00
2022-10-30T22:28:26.487Z,100.00
2022-10-30T22:31:14.037Z,100.00
2022-10-30T22:33:43.011Z,100.00
2022-10-30T22:36:18.832Z,100.00
2022-10-30T22:38:48.168Z,100.00
2022-10-30T22:41:18.623Z,100.00
2022-10-30T22:44:07.882Z,100.00
2022-10-30T22:46:54.787Z,100.00
2022-10-30T22:49:22.663Z,100.00
2022-10-30T22:51:50.307Z,100.00
2022-10-30T22:54:36.280Z,100.00
2022-10-30T22:57:04.490Z,100.00
2022-10-30T22:59:32.227Z,100.00
2022-10-30T23:02:00.099Z,100.00
2022-10-30T23:04:28.060Z,100.00
2022-10-30T23:06:55.791Z,100.00
2022-10-30T23:09:23.644Z,100.00
2022-10-30T23:11:51.517Z,100.00
2022-10-30T23:14:19.521Z,100.00
2022-10-30T23:16:47.209Z,100.00
2022-10-30T23:19:15.206Z,100.00
2022-10-30T23:21:42.851Z,100.00
2022-10-30T23:24:10.699Z,100.00
2022-10-30T23:26:38.474Z,100.00
2022-10-30T23:29:06.569Z,100.00
2022-10-30T23:31:39.791Z,100.00
2022-10-30T23:34:10.867Z,100.00
2022-10-30T23:36:38.928Z,100.00
2022-10-30T23:39:09.625Z,100.00
2022-10-30T23:41:37.756Z,100.00
2022-10-30T23:44:10.684Z,100.00
2022-10-30T23:46:38.906Z,100.00
2022-10-30T23:49:07.002Z,100.00
2022-10-30T23:51:34.721Z,100.00
2022-10-30T23:54:03.164Z,100.00
2022-10-30T23:56:31.257Z,100.00
2022-10-30T23:59:00.300Z,100.00
